Terminal Aerodrome Forecast
Issued by NWS Pocatello, ID

Home | Current Version | Previous Version | Text Only | Print | Product List | Glossary On
Versions: 1 2 3 4 5 6 7 8 9 10 11 12 13 14 15 16 17 18 19 20 21 22
000
FTUS45 KPIH 272107 AAB
TAFPIH
TAF AMD
KPIH 272107Z 2721/2818 25015KT P6SM -SHRA BKN025 OVC040
     FM272300 27010KT P6SM VCSH BKN035 BKN060 OVC120
     FM280300 28010KT P6SM -SHRA BKN035 OVC070
     FM281000 30006KT P6SM VCSH SCT060 SCT090=

USA.gov is the U.S. government's official web portal to all federal, state and local government web resources and services.